Udon Thani, Thailand
Current Conditions -  °F | °C
As of 7:00 AM on Sunday 23 Nov 2014 (Local Time) from VTUD Reporting Station
Haze Haze  
Wind Chill: 66°   Ceiling: Unl
Heat Index: 66°   Visibility: 2.5mi
Dew Point: 64°   Wind: 5mph
Humidity: 94%   Direction: 290°WNW
Pressure: 29.94"   Gusts: NA
Location:  17.41°N, 102.79°E
Report Text: VTUD 230000Z 29004KT 4000 BR NSC 19/18 Q1014 A2995 INFO B RWY30
Loading
Personal Weather Stations






























Interactive Weather Map New forecast layout! Learn more

10-Day Weather Forecast

Advertisements
Track Severe Weather on mobile